createdAt,value
2019-03-23T00:00:29.195Z,25.57
2019-03-23T00:03:01.707Z,27.83
2019-03-23T00:05:35.151Z,24.37
2019-03-23T00:08:07.608Z,26.73
2019-03-23T00:10:39.802Z,29.93
2019-03-23T00:13:12.180Z,34.97
2019-03-23T00:15:44.550Z,34.73
2019-03-23T00:18:16.945Z,35.90
2019-03-23T00:20:49.262Z,33.50
2019-03-23T00:23:21.595Z,34.10
2019-03-23T00:25:54.005Z,34.63
2019-03-23T00:28:27.685Z,33.70
2019-03-23T00:31:00.165Z,34.07
2019-03-23T00:33:32.725Z,32.47
2019-03-23T00:36:05.220Z,35.30
2019-03-23T00:38:37.690Z,37.20
2019-03-23T00:41:10.060Z,35.90
2019-03-23T00:43:42.475Z,34.67
2019-03-23T00:46:14.790Z,34.30
2019-03-23T00:48:47.184Z,32.07
2019-03-23T00:51:19.570Z,32.10
2019-03-23T00:53:53.331Z,36.50
2019-03-23T00:56:25.653Z,36.83
2019-03-23T00:58:58.065Z,40.60
2019-03-23T01:01:30.425Z,35.43
2019-03-23T01:04:02.945Z,33.40
2019-03-23T01:06:35.145Z,32.63
2019-03-23T01:09:09.221Z,29.67
2019-03-23T01:11:41.305Z,32.00
2019-03-23T01:14:13.705Z,30.70
2019-03-23T01:16:46.037Z,32.43
2019-03-23T01:19:18.425Z,33.77
2019-03-23T01:21:50.685Z,34.03
2019-03-23T01:24:23.240Z,39.03
2019-03-23T01:26:55.616Z,37.97
2019-03-23T01:29:28.081Z,46.57
2019-03-23T01:32:00.465Z,41.03
2019-03-23T01:34:32.845Z,42.83
2019-03-23T01:37:05.225Z,38.60
2019-03-23T01:39:37.600Z,35.90
2019-03-23T01:42:09.957Z,29.47
2019-03-23T01:44:42.330Z,34.67
2019-03-23T01:47:14.865Z,34.33
2019-03-23T01:49:47.180Z,37.30
2019-03-23T01:52:19.723Z,36.90
2019-03-23T01:54:52.046Z,32.53
2019-03-23T01:57:24.485Z,27.67
2019-03-23T01:59:56.975Z,26.77
2019-03-23T02:02:29.310Z,32.43
2019-03-23T02:05:01.706Z,29.53
2019-03-23T02:07:34.995Z,32.80
2019-03-23T02:10:10.340Z,30.20
2019-03-23T02:12:42.701Z,26.23
2019-03-23T02:15:15.071Z,27.27
2019-03-23T02:17:47.570Z,29.43
2019-03-23T02:20:19.705Z,29.37
2019-03-23T02:22:52.026Z,29.43
2019-03-23T02:25:24.485Z,30.20
2019-03-23T02:27:56.825Z,31.03
2019-03-23T02:30:29.036Z,33.13
2019-03-23T02:33:01.255Z,33.43
2019-03-23T02:35:33.593Z,35.63
2019-03-23T02:38:05.785Z,36.37
2019-03-23T02:40:37.989Z,36.83
2019-03-23T02:43:10.336Z,37.23
2019-03-23T02:45:42.938Z,32.77
2019-03-23T02:48:15.087Z,37.37
2019-03-23T02:50:47.405Z,35.83
2019-03-23T02:53:19.922Z,37.90
2019-03-23T02:55:52.215Z,36.63
2019-03-23T02:58:24.275Z,34.87
2019-03-23T03:00:56.536Z,36.43
2019-03-23T03:03:28.789Z,34.37
2019-03-23T03:06:01.127Z,35.27
2019-03-23T03:08:33.938Z,36.70
2019-03-23T03:11:06.536Z,36.93
2019-03-23T03:13:38.723Z,35.37
2019-03-23T03:16:11.015Z,32.47
2019-03-23T03:18:43.436Z,28.97
2019-03-23T03:21:15.845Z,28.60
2019-03-23T03:23:48.188Z,33.37
2019-03-23T03:26:20.580Z,31.33
2019-03-23T03:28:52.824Z,33.33
2019-03-23T03:31:25.221Z,30.07
2019-03-23T03:33:57.482Z,30.97
2019-03-23T03:36:30.266Z,30.63
2019-03-23T03:39:02.721Z,31.33
2019-03-23T03:41:34.821Z,34.03
2019-03-23T03:44:07.100Z,32.03
2019-03-23T03:46:39.647Z,31.27
2019-03-23T03:49:13.018Z,31.03
2019-03-23T03:51:45.613Z,32.17
2019-03-23T03:54:17.900Z,29.00
2019-03-23T03:56:50.287Z,31.17
2019-03-23T03:59:22.520Z,32.03
2019-03-23T04:01:55.026Z,32.50
2019-03-23T04:04:27.360Z,35.63
2019-03-23T04:06:59.686Z,33.10
2019-03-23T04:09:32.007Z,34.20
2019-03-23T04:12:04.297Z,32.27
2019-03-23T04:14:36.339Z,33.50
2019-03-23T04:17:08.522Z,30.80
2019-03-23T04:19:40.716Z,32.10
2019-03-23T04:22:13.533Z,32.50
2019-03-23T04:24:45.732Z,32.77
2019-03-23T04:27:17.846Z,31.00
2019-03-23T04:29:50.187Z,31.40
2019-03-23T04:32:22.472Z,31.83
2019-03-23T04:34:54.969Z,32.33
2019-03-23T04:37:27.301Z,32.57
2019-03-23T04:39:59.740Z,33.23
2019-03-23T04:42:32.040Z,34.27
2019-03-23T04:45:05.552Z,40.10
2019-03-23T04:47:37.805Z,39.60
2019-03-23T04:50:13.755Z,34.80
2019-03-23T04:52:46.015Z,36.23
2019-03-23T04:55:18.485Z,34.47
2019-03-23T04:57:50.685Z,30.93
2019-03-23T05:00:22.958Z,36.37
2019-03-23T05:02:55.368Z,36.57
2019-03-23T05:05:27.688Z,37.60
2019-03-23T05:08:00.005Z,37.03
2019-03-23T05:10:32.156Z,38.87
2019-03-23T05:13:04.560Z,38.47
2019-03-23T05:15:36.880Z,37.67
2019-03-23T05:18:09.560Z,35.93
2019-03-23T05:20:42.038Z,34.30
2019-03-23T05:23:14.934Z,35.83
2019-03-23T05:25:47.275Z,37.60
2019-03-23T05:28:19.545Z,30.37
2019-03-23T05:30:52.031Z,39.17
2019-03-23T05:33:24.514Z,43.27
2019-03-23T05:35:57.176Z,50.53
2019-03-23T05:38:29.854Z,46.77
2019-03-23T05:41:02.065Z,47.63
2019-03-23T05:43:34.680Z,45.80
2019-03-23T05:46:06.869Z,43.87
2019-03-23T05:48:39.520Z,43.77
2019-03-23T05:51:11.875Z,47.03
2019-03-23T05:53:44.335Z,56.60
2019-03-23T05:56:16.785Z,54.03
2019-03-23T05:58:49.590Z,51.97
2019-03-23T06:01:21.895Z,58.20
2019-03-23T06:03:54.322Z,56.47
2019-03-23T06:06:26.775Z,57.80
2019-03-23T06:08:59.570Z,53.23
2019-03-23T06:11:31.837Z,52.60
2019-03-23T06:14:04.215Z,46.37
2019-03-23T06:16:36.590Z,42.37
2019-03-23T06:19:08.955Z,41.97
2019-03-23T06:21:42.758Z,42.33
2019-03-23T06:24:15.671Z,38.30
2019-03-23T06:26:48.035Z,37.93
2019-03-23T06:29:20.805Z,36.17
2019-03-23T06:31:53.296Z,37.40
2019-03-23T06:34:25.610Z,38.10
2019-03-23T06:36:57.820Z,35.83
2019-03-23T06:39:30.264Z,36.43
2019-03-23T06:42:02.810Z,38.27
2019-03-23T06:44:35.205Z,35.93
2019-03-23T06:47:07.792Z,36.93
2019-03-23T06:49:40.155Z,35.47
2019-03-23T06:52:12.885Z,37.80
2019-03-23T06:54:45.340Z,39.07
2019-03-23T06:57:17.925Z,36.40
2019-03-23T06:59:50.576Z,38.00
2019-03-23T07:02:23.110Z,39.77
2019-03-23T07:04:56.950Z,39.33
2019-03-23T07:07:29.433Z,35.70
2019-03-23T07:10:01.926Z,37.83
2019-03-23T07:12:34.367Z,39.17
2019-03-23T07:15:19.363Z,38.00
2019-03-23T07:17:45.054Z,38.33
2019-03-23T07:20:18.170Z,40.60
2019-03-23T07:22:52.025Z,38.10
2019-03-23T07:25:24.595Z,38.10
2019-03-23T07:27:57.220Z,39.60
2019-03-23T07:30:29.797Z,38.40
2019-03-23T07:33:02.108Z,38.17
2019-03-23T07:35:34.395Z,39.07
2019-03-23T07:38:06.780Z,37.87
2019-03-23T07:40:39.305Z,42.57
2019-03-23T07:43:14.503Z,38.87
2019-03-23T07:45:47.254Z,39.60
2019-03-23T07:48:19.470Z,40.17
2019-03-23T07:50:51.952Z,39.53
2019-03-23T07:53:24.275Z,40.00
2019-03-23T07:55:56.775Z,40.23
2019-03-23T07:58:29.591Z,40.27
2019-03-23T08:01:02.201Z,37.77
2019-03-23T08:03:34.576Z,36.33
2019-03-23T08:06:07.005Z,39.33
2019-03-23T08:08:39.451Z,38.03
2019-03-23T08:11:11.966Z,36.80
2019-03-23T08:13:45.413Z,37.33
2019-03-23T08:16:17.850Z,39.37
2019-03-23T08:18:50.726Z,37.87
2019-03-23T08:21:23.145Z,36.63
2019-03-23T08:23:55.535Z,37.03
2019-03-23T08:26:27.960Z,35.97
2019-03-23T08:29:00.685Z,36.67
2019-03-23T08:31:33.700Z,37.60
2019-03-23T08:34:06.070Z,37.20
2019-03-23T08:36:39.590Z,36.77
2019-03-23T08:39:12.430Z,36.97
2019-03-23T08:41:44.929Z,35.80
2019-03-23T08:44:17.614Z,39.37
2019-03-23T08:46:50.275Z,38.10
2019-03-23T08:49:22.670Z,35.30
2019-03-23T08:51:55.225Z,37.03
2019-03-23T08:54:27.480Z,37.23
2019-03-23T08:56:59.945Z,37.10
2019-03-23T08:59:32.540Z,38.30
2019-03-23T09:02:06.245Z,34.83
2019-03-23T09:04:38.970Z,37.33
2019-03-23T09:07:11.580Z,35.97
2019-03-23T09:09:44.400Z,38.37
2019-03-23T09:12:17.100Z,42.00
2019-03-23T09:14:49.800Z,40.33
2019-03-23T09:17:22.395Z,53.00
2019-03-23T09:19:55.200Z,43.63
2019-03-23T09:22:27.925Z,41.40
2019-03-23T09:25:00.292Z,45.10
2019-03-23T09:27:32.862Z,49.73
2019-03-23T09:30:12.403Z,43.95
2019-03-23T09:32:44.860Z,39.35
2019-03-23T09:35:17.455Z,36.83
2019-03-23T09:37:49.865Z,45.70
2019-03-23T09:40:22.350Z,38.92
2019-03-23T09:42:54.785Z,40.88
2019-03-23T09:45:27.865Z,39.03
2019-03-23T09:48:00.645Z,44.67
2019-03-23T09:50:33.140Z,40.95
2019-03-23T09:53:06.090Z,39.13
2019-03-23T09:55:38.610Z,36.53
2019-03-23T09:58:11.425Z,35.25
2019-03-23T10:00:44.035Z,37.08
2019-03-23T10:03:16.510Z,39.60
2019-03-23T10:05:49.183Z,38.08
2019-03-23T10:08:21.491Z,36.85
2019-03-23T10:10:54.055Z,40.43
2019-03-23T10:13:26.460Z,37.70
2019-03-23T10:15:58.990Z,37.13
2019-03-23T10:18:31.305Z,39.10
2019-03-23T10:21:03.745Z,38.42
2019-03-23T10:23:36.265Z,35.05
2019-03-23T10:26:08.915Z,35.92
2019-03-23T10:28:41.165Z,38.42
2019-03-23T10:31:13.585Z,36.70
2019-03-23T10:33:46.036Z,36.35
2019-03-23T10:36:18.605Z,37.93
2019-03-23T10:38:51.365Z,41.95
2019-03-23T10:41:24.081Z,43.35
2019-03-23T10:43:56.611Z,42.70
2019-03-23T10:46:29.142Z,39.18
2019-03-23T10:49:01.731Z,35.55
2019-03-23T10:51:34.297Z,38.45
2019-03-23T10:54:07.185Z,37.10
2019-03-23T10:56:39.889Z,35.68
2019-03-23T10:59:13.375Z,34.58
2019-03-23T11:01:45.980Z,35.38
2019-03-23T11:04:18.540Z,37.25
2019-03-23T11:06:51.190Z,56.50
2019-03-23T11:09:23.496Z,40.78
2019-03-23T11:11:56.050Z,36.73
2019-03-23T11:14:29.575Z,33.78
2019-03-23T11:17:02.284Z,37.67
2019-03-23T11:19:34.960Z,34.35
2019-03-23T11:22:07.525Z,32.33
2019-03-23T11:24:40.143Z,31.90
2019-03-23T11:27:12.426Z,33.60
2019-03-23T11:29:44.901Z,31.05
2019-03-23T11:32:17.495Z,29.60
2019-03-23T11:34:50.211Z,31.97
2019-03-23T11:37:22.641Z,34.15
2019-03-23T11:39:55.300Z,33.18
2019-03-23T11:42:27.939Z,46.53
2019-03-23T11:45:00.651Z,36.55
2019-03-23T11:47:32.949Z,31.80
2019-03-23T11:50:07.686Z,32.23
2019-03-23T11:52:40.390Z,29.45
2019-03-23T11:55:12.845Z,30.23
2019-03-23T11:57:45.381Z,30.52
2019-03-23T12:00:17.861Z,28.92
2019-03-23T12:02:50.460Z,29.63
2019-03-23T12:05:22.871Z,27.90
2019-03-23T12:07:55.315Z,26.97
2019-03-23T12:10:27.840Z,30.35
2019-03-23T12:13:00.646Z,31.97
2019-03-23T12:15:33.226Z,28.15
2019-03-23T12:18:05.860Z,29.90
2019-03-23T12:20:38.210Z,27.07
2019-03-23T12:23:10.552Z,26.93
2019-03-23T12:25:42.846Z,26.15
2019-03-23T12:28:15.595Z,26.02
2019-03-23T12:30:48.085Z,25.30
2019-03-23T12:33:21.515Z,26.00
2019-03-23T12:35:53.905Z,26.97
2019-03-23T12:38:26.755Z,28.00
2019-03-23T12:41:09.988Z,24.30
2019-03-23T12:43:33.535Z,27.22
2019-03-23T12:46:06.045Z,26.35
2019-03-23T12:48:38.655Z,26.37
2019-03-23T12:51:11.246Z,25.40
2019-03-23T12:53:44.018Z,25.43
2019-03-23T12:56:16.865Z,26.77
2019-03-23T12:58:49.641Z,27.30
2019-03-23T13:01:22.995Z,23.98
2019-03-23T13:03:55.249Z,28.55
2019-03-23T13:06:28.255Z,26.23
2019-03-23T13:09:01.760Z,25.10
2019-03-23T13:11:36.193Z,25.27
2019-03-23T13:14:09.110Z,26.82
2019-03-23T13:16:41.730Z,26.62
2019-03-23T13:19:14.595Z,19.37
2019-03-23T13:21:47.270Z,22.90
2019-03-23T13:24:19.940Z,20.32
2019-03-23T13:26:52.499Z,20.48
2019-03-23T13:29:25.065Z,20.12
2019-03-23T13:31:57.575Z,19.45
2019-03-23T13:34:30.445Z,21.27
2019-03-23T13:37:02.981Z,21.87
2019-03-23T13:39:35.610Z,21.17
2019-03-23T13:42:08.230Z,20.72
2019-03-23T13:44:40.781Z,20.00
2019-03-23T13:47:13.296Z,20.00
2019-03-23T13:49:45.750Z,26.17
2019-03-23T13:52:18.097Z,23.55
2019-03-23T13:54:50.680Z,19.87
2019-03-23T13:57:23.593Z,22.77
2019-03-23T13:59:56.310Z,24.87
2019-03-23T14:02:29.115Z,27.02
2019-03-23T14:05:01.740Z,26.23
2019-03-23T14:07:34.462Z,24.72
2019-03-23T14:10:07.405Z,24.02
2019-03-23T14:12:39.800Z,22.82
2019-03-23T14:15:12.741Z,19.95
2019-03-23T14:17:45.245Z,19.57
2019-03-23T14:20:19.245Z,18.90
2019-03-23T14:23:02.128Z,18.55
2019-03-23T14:25:26.240Z,17.95
2019-03-23T14:27:58.760Z,16.57
2019-03-23T14:30:31.354Z,15.03
2019-03-23T14:33:04.060Z,15.40
2019-03-23T14:35:36.410Z,14.60
2019-03-23T14:38:09.132Z,14.85
2019-03-23T14:40:41.591Z,13.22
2019-03-23T14:43:14.080Z,14.10
2019-03-23T14:45:46.356Z,13.90
2019-03-23T14:48:18.676Z,15.83
2019-03-23T14:50:50.955Z,14.73
2019-03-23T14:53:23.715Z,15.23
2019-03-23T14:55:56.114Z,13.30
2019-03-23T14:58:28.636Z,12.73
2019-03-23T15:01:01.400Z,14.47
2019-03-23T15:03:33.999Z,22.70
2019-03-23T15:06:06.610Z,19.07
2019-03-23T15:08:39.400Z,20.82
2019-03-23T15:11:12.294Z,21.80
2019-03-23T15:13:44.802Z,16.10
2019-03-23T15:16:17.709Z,15.23
2019-03-23T15:18:50.269Z,11.95
2019-03-23T15:21:23.139Z,16.40
2019-03-23T15:23:55.801Z,11.60
2019-03-23T15:26:28.059Z,29.37
2019-03-23T15:29:00.932Z,18.55
2019-03-23T15:31:33.570Z,14.33
2019-03-23T15:34:06.395Z,9.45
2019-03-23T15:36:38.975Z,8.43
2019-03-23T15:39:12.000Z,8.28
2019-03-23T15:41:44.520Z,11.03
2019-03-23T15:44:16.795Z,9.63
2019-03-23T15:46:49.570Z,20.95
2019-03-23T15:49:21.905Z,28.98
2019-03-23T15:51:54.425Z,23.80
2019-03-23T15:54:26.825Z,15.60
2019-03-23T15:56:59.645Z,49.05
2019-03-23T15:59:32.066Z,25.50
2019-03-23T16:02:04.505Z,20.55
2019-03-23T16:04:37.246Z,13.38
2019-03-23T16:07:09.730Z,16.60
2019-03-23T16:09:42.029Z,15.18
2019-03-23T16:12:14.547Z,17.65
2019-03-23T16:14:47.125Z,14.15
2019-03-23T16:17:19.563Z,11.78
2019-03-23T16:19:52.109Z,13.68
2019-03-23T16:22:25.710Z,33.05
2019-03-23T16:24:58.435Z,14.40
2019-03-23T16:27:31.238Z,13.18
2019-03-23T16:30:04.775Z,17.48
2019-03-23T16:32:37.610Z,18.65
2019-03-23T16:35:10.125Z,15.10
2019-03-23T16:37:42.540Z,17.37
2019-03-23T16:40:15.000Z,23.60
2019-03-23T16:42:47.591Z,29.55
2019-03-23T16:45:19.933Z,34.30
2019-03-23T16:47:52.397Z,36.80
2019-03-23T16:50:25.083Z,39.78
2019-03-23T16:52:58.125Z,42.70
2019-03-23T16:55:32.290Z,41.48
2019-03-23T16:58:05.315Z,40.75
2019-03-23T17:00:38.526Z,37.17
2019-03-23T17:03:11.060Z,36.95
2019-03-23T17:05:43.510Z,38.73
2019-03-23T17:08:15.880Z,35.15
2019-03-23T17:10:49.325Z,43.20
2019-03-23T17:13:22.001Z,39.27
2019-03-23T17:15:54.446Z,50.40
2019-03-23T17:18:26.990Z,75.30
2019-03-23T17:20:59.772Z,42.65
2019-03-23T17:23:32.486Z,46.90
2019-03-23T17:26:05.292Z,84.30
2019-03-23T17:28:37.795Z,106.83
2019-03-23T17:31:10.431Z,51.70
2019-03-23T17:33:42.643Z,46.73
2019-03-23T17:36:15.318Z,42.80
2019-03-23T17:38:47.983Z,62.60
2019-03-23T17:41:20.812Z,47.07
2019-03-23T17:43:53.234Z,55.30
2019-03-23T17:46:27.734Z,70.97
2019-03-23T17:49:00.116Z,55.20
2019-03-23T17:51:33.022Z,54.77
2019-03-23T17:54:05.555Z,52.20
2019-03-23T17:56:38.245Z,51.53
2019-03-23T17:59:10.635Z,52.23
2019-03-23T18:01:43.130Z,61.20
2019-03-23T18:04:15.870Z,51.93
2019-03-23T18:06:48.281Z,68.83
2019-03-23T18:09:20.831Z,51.03
2019-03-23T18:11:53.480Z,50.60
2019-03-23T18:14:26.100Z,51.60
2019-03-23T18:16:58.559Z,47.77
2019-03-23T18:19:32.537Z,41.27
2019-03-23T18:22:05.115Z,41.37
2019-03-23T18:24:37.830Z,46.50
2019-03-23T18:27:10.415Z,38.40
2019-03-23T18:29:42.992Z,39.87
2019-03-23T18:32:15.741Z,41.97
2019-03-23T18:34:48.447Z,37.40
2019-03-23T18:37:21.270Z,36.00
2019-03-23T18:39:54.035Z,39.63
2019-03-23T18:42:26.655Z,42.23
2019-03-23T18:44:59.295Z,37.37
2019-03-23T18:47:32.267Z,35.13
2019-03-23T18:50:06.126Z,33.77
2019-03-23T18:52:39.825Z,32.17
2019-03-23T18:55:12.610Z,31.53
2019-03-23T18:57:45.146Z,33.17
2019-03-23T19:00:32.951Z,35.90
2019-03-23T19:03:05.485Z,30.63
2019-03-23T19:05:38.096Z,32.10
2019-03-23T19:08:11.942Z,33.87
2019-03-23T19:10:44.880Z,35.77
2019-03-23T19:13:17.720Z,37.47
2019-03-23T19:15:50.056Z,34.67
2019-03-23T19:18:22.896Z,32.37
2019-03-23T19:20:55.385Z,32.00
2019-03-23T19:23:28.195Z,27.60
2019-03-23T19:26:00.700Z,29.97
2019-03-23T19:28:33.663Z,29.87
2019-03-23T19:31:06.495Z,30.03
2019-03-23T19:33:39.518Z,29.33
2019-03-23T19:36:11.975Z,31.43
2019-03-23T19:38:44.820Z,26.73
2019-03-23T19:41:17.526Z,30.27
2019-03-23T19:43:51.953Z,30.57
2019-03-23T19:46:24.618Z,47.17
2019-03-23T19:48:57.545Z,39.83
2019-03-23T19:51:30.085Z,43.87
2019-03-23T19:54:02.761Z,44.87
2019-03-23T19:56:35.206Z,73.93
2019-03-23T19:59:07.970Z,50.60
2019-03-23T20:01:40.645Z,68.30
2019-03-23T20:04:13.530Z,41.83
2019-03-23T20:06:46.160Z,37.20
2019-03-23T20:09:18.665Z,49.20
2019-03-23T20:11:51.176Z,46.00
2019-03-23T20:14:23.475Z,39.00
2019-03-23T20:16:57.021Z,54.10
2019-03-23T20:19:29.615Z,40.70
2019-03-23T20:22:02.607Z,37.17
2019-03-23T20:24:35.025Z,39.53
2019-03-23T20:27:07.530Z,52.63
2019-03-23T20:29:40.795Z,39.70
2019-03-23T20:32:13.440Z,35.67
2019-03-23T20:34:46.077Z,43.93
2019-03-23T20:37:18.435Z,54.23
2019-03-23T20:39:51.265Z,39.90
2019-03-23T20:42:23.970Z,36.37
2019-03-23T20:44:56.815Z,33.50
2019-03-23T20:47:29.275Z,33.30
2019-03-23T20:50:02.071Z,28.53
2019-03-23T20:52:35.670Z,27.00
2019-03-23T20:55:17.565Z,26.57
2019-03-23T20:57:50.816Z,23.93
2019-03-23T21:00:23.544Z,24.73
2019-03-23T21:02:56.101Z,23.33
2019-03-23T21:05:34.235Z,33.83
2019-03-23T21:08:04.820Z,25.40
2019-03-23T21:10:37.945Z,22.90
2019-03-23T21:13:10.805Z,25.17
2019-03-23T21:15:43.546Z,21.67
2019-03-23T21:18:16.320Z,21.93
2019-03-23T21:20:49.217Z,21.77
2019-03-23T21:23:22.025Z,20.67
2019-03-23T21:25:54.803Z,20.27
2019-03-23T21:28:27.872Z,19.43
2019-03-23T21:31:01.177Z,20.77
2019-03-23T21:33:38.819Z,19.53
2019-03-23T21:36:08.244Z,20.87
2019-03-23T21:38:41.340Z,18.60
2019-03-23T21:41:14.095Z,16.83
2019-03-23T21:43:46.578Z,17.23
2019-03-23T21:46:19.345Z,18.90
2019-03-23T21:48:51.890Z,17.13
2019-03-23T21:51:24.900Z,16.77
2019-03-23T21:54:00.535Z,17.03
2019-03-23T21:56:33.425Z,18.57
2019-03-23T21:59:06.080Z,18.20
2019-03-23T22:01:38.458Z,17.13
2019-03-23T22:04:11.280Z,18.17
2019-03-23T22:06:44.367Z,17.47
2019-03-23T22:09:16.795Z,17.03
2019-03-23T22:11:49.321Z,16.90
2019-03-23T22:14:21.960Z,16.50
2019-03-23T22:16:54.485Z,16.47
2019-03-23T22:19:27.040Z,16.30
2019-03-23T22:21:59.965Z,19.00
2019-03-23T22:24:32.525Z,17.50
2019-03-23T22:27:05.164Z,16.57
2019-03-23T22:29:37.676Z,16.00
2019-03-23T22:32:10.326Z,15.20
2019-03-23T22:34:43.406Z,15.97
2019-03-23T22:37:16.040Z,14.80
2019-03-23T22:39:48.740Z,14.97
2019-03-23T22:42:21.130Z,15.70
2019-03-23T22:44:53.599Z,15.43
2019-03-23T22:47:25.874Z,14.70
2019-03-23T22:49:58.660Z,12.83
2019-03-23T22:52:30.900Z,15.27
2019-03-23T22:55:03.302Z,14.33
2019-03-23T22:57:35.760Z,16.53
2019-03-23T23:00:14.095Z,15.33
2019-03-23T23:02:48.105Z,14.97
2019-03-23T23:05:20.515Z,13.60
2019-03-23T23:07:52.952Z,15.20
2019-03-23T23:10:25.316Z,16.50
2019-03-23T23:12:57.636Z,17.23
2019-03-23T23:15:30.195Z,18.07
2019-03-23T23:18:02.591Z,16.80
2019-03-23T23:20:34.735Z,15.57
2019-03-23T23:23:07.040Z,15.40
2019-03-23T23:25:39.570Z,14.47
2019-03-23T23:28:12.276Z,17.17
2019-03-23T23:30:44.881Z,17.07
2019-03-23T23:33:17.560Z,15.80
2019-03-23T23:35:50.191Z,17.77
2019-03-23T23:38:22.667Z,18.73
2019-03-23T23:40:55.222Z,15.90
2019-03-23T23:43:27.483Z,16.67
2019-03-23T23:46:00.924Z,18.73
2019-03-23T23:48:33.573Z,25.00
2019-03-23T23:51:06.051Z,26.23
2019-03-23T23:53:38.360Z,30.87
2019-03-23T23:56:11.144Z,23.43
2019-03-23T23:58:43.546Z,22.93
